createdAt,value
2019-01-21T00:00:32.404Z,68.85
2019-01-21T00:01:23.467Z,69.60
2019-01-21T00:01:57.377Z,73.17
2019-01-21T00:02:30.924Z,69.25
2019-01-21T00:03:05.030Z,67.53
2019-01-21T00:03:38.602Z,67.27
2019-01-21T00:04:12.216Z,71.10
2019-01-21T00:04:45.732Z,65.78
2019-01-21T00:05:19.332Z,74.65
2019-01-21T00:05:52.884Z,68.02
2019-01-21T00:06:26.464Z,68.87
2019-01-21T00:07:00.045Z,69.70
2019-01-21T00:07:33.633Z,68.45
2019-01-21T00:08:07.236Z,73.12
2019-01-21T00:08:40.739Z,69.80
2019-01-21T00:09:14.683Z,73.00
2019-01-21T00:09:48.325Z,69.03
2019-01-21T00:10:22.012Z,66.15
2019-01-21T00:10:55.558Z,64.17
2019-01-21T00:11:29.045Z,72.80
2019-01-21T00:12:02.701Z,66.60
2019-01-21T00:12:36.197Z,64.80
2019-01-21T00:13:09.717Z,73.28
2019-01-21T00:13:43.225Z,71.02
2019-01-21T00:14:16.712Z,70.57
2019-01-21T00:14:50.209Z,75.12
2019-01-21T00:15:23.723Z,61.30
2019-01-21T00:15:57.283Z,66.77
2019-01-21T00:16:30.862Z,71.57
2019-01-21T00:17:04.614Z,68.33
2019-01-21T00:17:38.143Z,64.42
2019-01-21T00:18:11.804Z,71.12
2019-01-21T00:18:45.373Z,69.20
2019-01-21T00:19:18.881Z,70.32
2019-01-21T00:19:52.390Z,78.65
2019-01-21T00:20:25.967Z,67.65
2019-01-21T00:20:59.522Z,66.00
2019-01-21T00:21:33.036Z,64.65
2019-01-21T00:22:06.491Z,62.53
2019-01-21T00:22:39.918Z,64.75
2019-01-21T00:23:13.446Z,66.47
2019-01-21T00:23:46.904Z,65.45
2019-01-21T00:24:20.493Z,66.77
2019-01-21T00:24:53.917Z,69.37
2019-01-21T00:25:27.411Z,70.95
2019-01-21T00:26:00.996Z,70.83
2019-01-21T00:26:34.561Z,71.57
2019-01-21T00:27:08.110Z,69.53
2019-01-21T00:27:41.787Z,68.55
2019-01-21T00:28:15.355Z,75.78
2019-01-21T00:28:48.881Z,69.72
2019-01-21T00:29:22.294Z,66.33
2019-01-21T00:29:55.810Z,73.47
2019-01-21T00:30:29.281Z,71.75
2019-01-21T00:31:02.976Z,63.52
2019-01-21T00:31:36.450Z,68.12
2019-01-21T00:32:10.056Z,76.53
2019-01-21T00:32:43.606Z,68.52
2019-01-21T00:33:20.672Z,68.10
2019-01-21T00:33:56.552Z,64.97
2019-01-21T00:34:32.151Z,67.70
2019-01-21T00:35:07.691Z,63.33
2019-01-21T00:35:43.251Z,66.92
2019-01-21T00:36:16.744Z,62.62
2019-01-21T00:36:50.225Z,66.75
2019-01-21T00:37:23.838Z,63.52
2019-01-21T00:37:57.443Z,72.62
2019-01-21T00:38:30.879Z,61.08
2019-01-21T00:39:06.334Z,57.30
2019-01-21T00:39:39.928Z,65.70
2019-01-21T00:40:13.705Z,59.38
2019-01-21T00:40:47.245Z,62.45
2019-01-21T00:41:20.729Z,60.35
2019-01-21T00:41:54.251Z,59.53
2019-01-21T00:42:27.843Z,65.25
2019-01-21T00:43:01.366Z,64.35
2019-01-21T00:43:34.873Z,59.93
2019-01-21T00:44:08.401Z,66.75
2019-01-21T00:44:41.973Z,69.30
2019-01-21T00:45:15.455Z,61.33
2019-01-21T00:45:49.151Z,57.98
2019-01-21T00:46:22.662Z,67.90
2019-01-21T00:46:56.158Z,66.62
2019-01-21T00:47:30.028Z,71.40
2019-01-21T00:48:04.324Z,65.50
2019-01-21T00:48:37.824Z,60.25
2019-01-21T00:49:11.341Z,68.75
2019-01-21T00:49:44.923Z,60.23
2019-01-21T00:50:18.497Z,59.70
2019-01-21T00:50:52.055Z,59.90
2019-01-21T00:51:25.541Z,56.73
2019-01-21T00:51:59.140Z,64.50
2019-01-21T00:52:32.713Z,68.52
2019-01-21T00:53:06.195Z,56.10
2019-01-21T00:53:39.689Z,69.17
2019-01-21T00:54:13.183Z,61.55
2019-01-21T00:54:46.657Z,72.27
2019-01-21T00:55:20.096Z,63.60
2019-01-21T00:55:53.584Z,68.42
2019-01-21T00:56:27.108Z,66.60
2019-01-21T00:57:00.517Z,66.15
2019-01-21T00:57:34.017Z,73.40
2019-01-21T00:58:07.568Z,59.13
2019-01-21T00:58:41.252Z,67.27
2019-01-21T00:59:14.635Z,72.15
2019-01-21T00:59:48.063Z,64.20
2019-01-21T01:00:22.650Z,74.22
2019-01-21T01:00:56.149Z,61.77
2019-01-21T01:01:29.704Z,60.65
2019-01-21T01:02:03.216Z,73.70
2019-01-21T01:02:36.690Z,64.40
2019-01-21T01:03:10.154Z,61.02
2019-01-21T01:03:43.652Z,62.62
2019-01-21T01:04:17.217Z,75.80
2019-01-21T01:04:50.651Z,62.80
2019-01-21T01:05:24.176Z,61.02
2019-01-21T01:05:57.760Z,61.88
2019-01-21T01:06:31.292Z,68.97
2019-01-21T01:07:04.830Z,59.50
2019-01-21T01:07:39.302Z,61.65
2019-01-21T01:08:12.972Z,65.32
2019-01-21T01:08:46.468Z,71.28
2019-01-21T01:09:19.884Z,64.82
2019-01-21T01:09:53.415Z,63.78
2019-01-21T01:10:26.928Z,62.20
2019-01-21T01:11:00.408Z,61.33
2019-01-21T01:11:33.907Z,61.83
2019-01-21T01:12:07.500Z,59.85
2019-01-21T01:12:40.967Z,59.10
2019-01-21T01:13:14.436Z,61.23
2019-01-21T01:13:48.025Z,66.72
2019-01-21T01:14:21.500Z,57.43
2019-01-21T01:14:54.962Z,64.55
2019-01-21T01:15:28.499Z,58.00
2019-01-21T01:16:01.934Z,69.00
2019-01-21T01:16:35.444Z,57.83
2019-01-21T01:17:08.920Z,63.28
2019-01-21T01:17:42.468Z,66.40
2019-01-21T01:18:15.978Z,66.28
2019-01-21T01:18:49.397Z,59.05
2019-01-21T01:19:22.946Z,60.23
2019-01-21T01:19:56.379Z,59.38
2019-01-21T01:20:29.875Z,63.80
2019-01-21T01:21:03.428Z,60.95
2019-01-21T01:21:36.944Z,58.50
2019-01-21T01:22:10.424Z,60.08
2019-01-21T01:22:43.981Z,67.80
2019-01-21T01:23:17.468Z,66.02
2019-01-21T01:23:50.978Z,62.03
2019-01-21T01:24:24.463Z,60.08
2019-01-21T01:24:58.059Z,61.37
2019-01-21T01:25:31.610Z,63.40
2019-01-21T01:26:05.203Z,65.10
2019-01-21T01:26:38.707Z,70.78
2019-01-21T01:27:12.219Z,65.20
2019-01-21T01:27:45.762Z,65.30
2019-01-21T01:28:19.353Z,59.48
2019-01-21T01:28:52.829Z,66.22
2019-01-21T01:29:26.347Z,68.40
2019-01-21T01:29:59.918Z,62.10
2019-01-21T01:30:33.416Z,59.25
2019-01-21T01:31:06.913Z,67.82
2019-01-21T01:31:40.398Z,61.50
2019-01-21T01:32:13.900Z,63.80
2019-01-21T01:32:47.379Z,59.88
2019-01-21T01:33:20.840Z,59.53
2019-01-21T01:33:54.321Z,67.25
2019-01-21T01:34:27.757Z,64.10
2019-01-21T01:35:01.293Z,68.92
2019-01-21T01:35:34.829Z,61.95
2019-01-21T01:36:08.479Z,56.58
2019-01-21T01:36:42.033Z,63.38
2019-01-21T01:37:15.509Z,60.73
2019-01-21T01:37:49.042Z,61.77
2019-01-21T01:38:22.590Z,58.05
2019-01-21T01:38:56.043Z,57.03
2019-01-21T01:39:29.583Z,56.20
2019-01-21T01:40:03.169Z,57.73
2019-01-21T01:40:36.654Z,55.15
2019-01-21T01:41:10.150Z,59.03
2019-01-21T01:41:43.648Z,66.82
2019-01-21T01:42:17.223Z,63.45
2019-01-21T01:42:50.800Z,63.20
2019-01-21T01:43:24.352Z,64.25
2019-01-21T01:43:57.953Z,57.00
2019-01-21T01:44:31.544Z,55.05
2019-01-21T01:45:05.576Z,60.98
2019-01-21T01:45:39.137Z,62.55
2019-01-21T01:46:12.712Z,60.58
2019-01-21T01:46:46.282Z,62.10
2019-01-21T01:47:19.888Z,50.75
2019-01-21T01:47:55.947Z,63.00
2019-01-21T01:48:29.419Z,63.75
2019-01-21T01:49:02.914Z,63.42
2019-01-21T01:49:36.400Z,64.75
2019-01-21T01:50:10.014Z,65.12
2019-01-21T01:50:43.561Z,61.15
2019-01-21T01:51:17.065Z,61.70
2019-01-21T01:51:50.662Z,63.20
2019-01-21T01:52:24.181Z,57.08
2019-01-21T01:52:57.912Z,59.77
2019-01-21T01:53:31.420Z,61.75
2019-01-21T01:54:05.179Z,60.23
2019-01-21T01:54:38.762Z,63.10
2019-01-21T01:55:12.348Z,65.05
2019-01-21T01:55:45.944Z,67.72
2019-01-21T01:56:19.512Z,60.25
2019-01-21T01:56:53.079Z,61.48
2019-01-21T01:57:26.619Z,58.15
2019-01-21T01:58:01.145Z,63.20
2019-01-21T01:58:34.660Z,53.38
2019-01-21T01:59:08.229Z,62.48
2019-01-21T01:59:41.831Z,55.95
2019-01-21T02:00:15.785Z,60.10
2019-01-21T02:00:49.287Z,63.15
2019-01-21T02:01:22.849Z,61.98
2019-01-21T02:01:56.399Z,63.33
2019-01-21T02:02:29.879Z,57.93
2019-01-21T02:03:03.451Z,61.50
2019-01-21T02:03:37.037Z,59.03
2019-01-21T02:04:10.644Z,58.78
2019-01-21T02:04:44.208Z,64.12
2019-01-21T02:05:17.936Z,67.00
2019-01-21T02:05:51.555Z,65.30
2019-01-21T02:06:25.113Z,58.60
2019-01-21T02:06:58.701Z,67.92
2019-01-21T02:07:32.275Z,61.58
2019-01-21T02:08:05.807Z,59.30
2019-01-21T02:08:39.396Z,66.28
2019-01-21T02:09:12.910Z,57.80
2019-01-21T02:09:46.712Z,60.00
2019-01-21T02:10:21.624Z,71.17
2019-01-21T02:10:55.295Z,56.80
2019-01-21T02:11:28.869Z,62.38
2019-01-21T02:12:02.649Z,67.95
2019-01-21T02:12:36.133Z,60.73
2019-01-21T02:13:10.308Z,58.28
2019-01-21T02:13:43.912Z,57.08
2019-01-21T02:14:18.853Z,65.47
2019-01-21T02:14:52.409Z,66.12
2019-01-21T02:15:26.309Z,65.35
2019-01-21T02:15:59.887Z,62.50
2019-01-21T02:16:33.868Z,66.05
2019-01-21T02:17:07.403Z,64.37
2019-01-21T02:17:41.200Z,71.92
2019-01-21T02:18:14.765Z,69.80
2019-01-21T02:18:48.647Z,60.15
2019-01-21T02:19:24.049Z,53.80
2019-01-21T02:19:57.851Z,57.95
2019-01-21T02:20:31.431Z,60.90
2019-01-21T02:21:05.827Z,62.88
2019-01-21T02:21:40.829Z,66.40
2019-01-21T02:22:14.389Z,61.75
2019-01-21T02:22:49.553Z,65.92
2019-01-21T02:23:24.254Z,58.17
2019-01-21T02:24:02.991Z,59.35
2019-01-21T02:24:39.033Z,62.35
2019-01-21T02:25:13.031Z,64.95
2019-01-21T02:25:53.775Z,62.98
2019-01-21T02:26:46.481Z,64.47
2019-01-21T02:27:22.609Z,60.45
2019-01-21T02:28:13.842Z,62.03
2019-01-21T02:29:15.661Z,67.03
2019-01-21T02:30:06.987Z,61.23
2019-01-21T02:31:08.594Z,64.30
2019-01-21T02:31:59.843Z,64.65
2019-01-21T02:32:39.870Z,56.65
2019-01-21T02:33:38.748Z,54.93
2019-01-21T02:34:43.261Z,53.38
2019-01-21T02:35:19.554Z,67.10
2019-01-21T02:35:59.781Z,70.32
2019-01-21T02:36:52.514Z,57.48
2019-01-21T02:37:44.033Z,54.90
2019-01-21T02:38:35.124Z,61.10
2019-01-21T02:39:22.421Z,55.33
2019-01-21T02:40:17.807Z,58.40
2019-01-21T02:40:54.729Z,50.20
2019-01-21T02:41:48.148Z,51.35
2019-01-21T02:42:30.339Z,61.63
2019-01-21T02:43:15.296Z,55.63
2019-01-21T02:43:52.377Z,56.60
2019-01-21T02:44:47.782Z,59.45
2019-01-21T02:45:28.011Z,50.43
2019-01-21T02:46:25.245Z,53.70
2019-01-21T02:47:13.394Z,44.35
2019-01-21T02:47:49.985Z,56.37
2019-01-21T02:48:33.654Z,53.17
2019-01-21T02:49:14.204Z,53.15
2019-01-21T02:50:03.735Z,58.70
2019-01-21T02:50:42.375Z,59.35
2019-01-21T02:51:46.897Z,55.80
2019-01-21T02:52:37.561Z,53.02
2019-01-21T02:53:24.870Z,48.40
2019-01-21T02:54:05.073Z,50.00
2019-01-21T02:54:46.586Z,59.93
2019-01-21T02:55:48.420Z,56.18
2019-01-21T02:56:43.837Z,52.75
2019-01-21T02:57:31.515Z,57.83
2019-01-21T02:58:14.439Z,55.20
2019-01-21T02:58:58.065Z,46.68
2019-01-21T02:59:53.741Z,49.88
2019-01-21T03:00:49.378Z,59.70
2019-01-21T03:01:35.809Z,54.60
2019-01-21T03:02:25.833Z,58.42
2019-01-21T03:03:21.798Z,55.25
2019-01-21T03:04:03.863Z,55.52
2019-01-21T03:04:56.615Z,56.33
2019-01-21T03:05:55.046Z,53.90
2019-01-21T03:06:35.548Z,61.25
2019-01-21T03:07:13.997Z,51.30
2019-01-21T03:07:58.695Z,55.92
2019-01-21T03:08:57.208Z,53.42
2019-01-21T03:09:44.318Z,59.15
2019-01-21T03:10:24.129Z,60.03
2019-01-21T03:11:03.380Z,65.22
2019-01-21T03:11:53.988Z,61.80
2019-01-21T03:12:50.090Z,57.13
2019-01-21T03:13:30.214Z,53.80
2019-01-21T03:14:07.890Z,52.45
2019-01-21T03:14:47.851Z,51.65
2019-01-21T03:15:28.787Z,61.00
2019-01-21T03:16:15.233Z,57.55
2019-01-21T03:17:13.595Z,57.55
2019-01-21T03:18:15.239Z,55.05
2019-01-21T03:19:04.654Z,60.33
2019-01-21T03:20:09.069Z,53.78
2019-01-21T03:21:01.805Z,58.58
2019-01-21T03:22:00.246Z,54.00
2019-01-21T03:22:55.863Z,58.48
2019-01-21T03:23:51.597Z,57.93
2019-01-21T03:24:48.028Z,66.28
2019-01-21T03:25:31.065Z,56.35
2019-01-21T03:26:32.979Z,60.65
2019-01-21T03:27:13.945Z,53.65
2019-01-21T03:28:05.418Z,55.75
2019-01-21T03:29:16.167Z,50.65
2019-01-21T03:30:17.781Z,54.10
2019-01-21T03:30:58.331Z,57.98
2019-01-21T03:31:56.934Z,62.38
2019-01-21T03:32:48.111Z,64.15
2019-01-21T03:33:40.857Z,58.70
2019-01-21T03:34:22.903Z,54.53
2019-01-21T03:35:20.216Z,59.25
2019-01-21T03:36:17.054Z,51.48
2019-01-21T03:37:12.582Z,61.08
2019-01-21T03:38:14.411Z,58.92
2019-01-21T03:39:05.403Z,55.00
2019-01-21T03:40:16.123Z,66.17
2019-01-21T03:40:58.464Z,58.85
2019-01-21T03:41:57.097Z,67.37
2019-01-21T03:42:46.206Z,59.05
2019-01-21T03:43:44.769Z,59.38
2019-01-21T03:44:29.173Z,58.02
2019-01-21T03:45:20.616Z,62.55
2019-01-21T03:46:16.204Z,60.05
2019-01-21T03:47:14.835Z,64.03
2019-01-21T03:48:02.686Z,63.63
2019-01-21T03:48:49.093Z,68.30
2019-01-21T03:49:54.097Z,65.00
2019-01-21T03:50:45.174Z,56.70
2019-01-21T03:51:40.735Z,50.90
2019-01-21T03:52:45.652Z,57.90
2019-01-21T03:53:22.113Z,57.48
2019-01-21T03:54:05.353Z,59.50
2019-01-21T03:54:44.029Z,62.65
2019-01-21T03:55:18.248Z,54.30
2019-01-21T03:55:53.869Z,61.83
2019-01-21T03:56:39.129Z,62.35
2019-01-21T03:57:18.940Z,47.03
2019-01-21T03:58:12.529Z,55.38
2019-01-21T03:58:56.903Z,58.65
2019-01-21T04:00:07.519Z,68.83
2019-01-21T04:00:47.070Z,56.92
2019-01-21T04:01:29.364Z,57.38
2019-01-21T04:02:33.681Z,64.15
2019-01-21T04:03:24.224Z,54.73
2019-01-21T04:04:19.742Z,55.48
2019-01-21T04:05:15.127Z,59.77
2019-01-21T04:06:00.554Z,66.17
2019-01-21T04:06:38.298Z,64.55
2019-01-21T04:07:15.856Z,58.58
2019-01-21T04:08:20.300Z,61.15
2019-01-21T04:09:00.065Z,54.80
2019-01-21T04:09:52.733Z,62.43
2019-01-21T04:10:44.138Z,61.02
2019-01-21T04:11:39.535Z,61.83
2019-01-21T04:12:29.199Z,62.65
2019-01-21T04:13:21.913Z,54.20
2019-01-21T04:14:13.091Z,62.67
2019-01-21T04:15:24.275Z,66.90
2019-01-21T04:16:16.996Z,60.50
2019-01-21T04:17:18.566Z,61.05
2019-01-21T04:18:11.223Z,62.05
2019-01-21T04:18:56.273Z,63.58
2019-01-21T04:19:49.013Z,57.08
2019-01-21T04:20:41.749Z,63.52
2019-01-21T04:21:21.284Z,60.90
2019-01-21T04:22:25.817Z,59.80
2019-01-21T04:23:16.967Z,52.40
2019-01-21T04:24:09.739Z,52.25
2019-01-21T04:24:49.565Z,54.77
2019-01-21T04:25:42.428Z,56.63
2019-01-21T04:26:29.644Z,57.05
2019-01-21T04:27:06.604Z,49.35
2019-01-21T04:28:03.648Z,55.67
2019-01-21T04:28:44.877Z,54.18
2019-01-21T04:29:36.390Z,57.00
2019-01-21T04:30:13.658Z,56.10
2019-01-21T04:30:55.333Z,61.45
2019-01-21T04:31:41.627Z,48.58
2019-01-21T04:32:20.019Z,57.00
2019-01-21T04:33:01.318Z,55.75
2019-01-21T04:33:52.610Z,51.60
2019-01-21T04:34:35.643Z,59.58
2019-01-21T04:35:23.393Z,61.00
2019-01-21T04:36:10.386Z,59.15
2019-01-21T04:37:01.789Z,56.55
2019-01-21T04:37:51.442Z,50.12
2019-01-21T04:38:50.263Z,56.95
2019-01-21T04:39:45.525Z,51.08
2019-01-21T04:40:40.933Z,57.55
2019-01-21T04:41:17.920Z,59.90
2019-01-21T04:41:55.937Z,61.48
2019-01-21T04:42:36.608Z,57.85
2019-01-21T04:43:31.907Z,60.65
2019-01-21T04:44:24.620Z,62.00
2019-01-21T04:45:17.734Z,60.60
2019-01-21T04:46:13.923Z,60.80
2019-01-21T04:47:03.544Z,53.42
2019-01-21T04:47:47.034Z,53.58
2019-01-21T04:48:34.570Z,61.92
2019-01-21T04:49:22.287Z,62.83
2019-01-21T04:50:01.619Z,55.17
2019-01-21T04:51:03.928Z,55.65
2019-01-21T04:51:45.067Z,60.78
2019-01-21T04:52:31.952Z,53.05
2019-01-21T04:53:10.215Z,57.58
2019-01-21T04:54:01.471Z,60.75
2019-01-21T04:54:56.833Z,55.40
2019-01-21T04:55:58.344Z,61.92
2019-01-21T04:57:09.374Z,56.65
2019-01-21T04:57:57.764Z,49.65
2019-01-21T04:58:53.693Z,54.90
2019-01-21T04:59:44.820Z,55.85
2019-01-21T05:00:46.626Z,50.48
2019-01-21T05:01:28.922Z,52.23
2019-01-21T05:02:20.193Z,61.23
2019-01-21T05:03:10.489Z,62.58
2019-01-21T05:03:51.106Z,56.73
2019-01-21T05:04:28.737Z,54.08
2019-01-21T05:05:20.178Z,60.15
2019-01-21T05:06:22.528Z,61.60
2019-01-21T05:07:06.659Z,56.08
2019-01-21T05:07:44.561Z,60.17
2019-01-21T05:08:45.768Z,56.02
2019-01-21T05:09:27.945Z,54.13
2019-01-21T05:10:04.858Z,56.65
2019-01-21T05:11:06.771Z,57.70
2019-01-21T05:11:50.912Z,54.83
2019-01-21T05:12:55.309Z,60.10
2019-01-21T05:13:46.454Z,49.23
2019-01-21T05:14:37.568Z,60.25
2019-01-21T05:15:31.692Z,61.58
2019-01-21T05:16:36.434Z,52.85
2019-01-21T05:17:31.651Z,60.10
2019-01-21T05:18:16.798Z,65.55
2019-01-21T05:19:21.408Z,64.03
2019-01-21T05:20:14.194Z,59.30
2019-01-21T05:21:16.085Z,56.65
2019-01-21T05:21:57.737Z,63.30
2019-01-21T05:22:52.861Z,55.63
2019-01-21T05:23:51.678Z,59.35
2019-01-21T05:24:36.046Z,61.92
2019-01-21T05:25:27.437Z,62.55
2019-01-21T05:26:18.649Z,61.13
2019-01-21T05:26:58.577Z,53.00
2019-01-21T05:27:59.874Z,56.68
2019-01-21T05:29:10.710Z,51.15
2019-01-21T05:30:06.385Z,53.28
2019-01-21T05:30:44.266Z,46.80
2019-01-21T05:31:21.593Z,53.15
2019-01-21T05:32:03.155Z,56.75
2019-01-21T05:32:56.278Z,54.75
2019-01-21T05:33:41.010Z,54.95
2019-01-21T05:34:36.645Z,57.67
2019-01-21T05:35:35.330Z,50.15
2019-01-21T05:36:37.383Z,56.63
2019-01-21T05:37:32.834Z,55.38
2019-01-21T05:38:12.633Z,53.98
2019-01-21T05:39:11.205Z,56.65
2019-01-21T05:39:48.511Z,57.98
2019-01-21T05:40:41.290Z,55.75
2019-01-21T05:41:34.025Z,59.23
2019-01-21T05:42:35.835Z,56.65
2019-01-21T05:43:23.827Z,60.45
2019-01-21T05:44:22.026Z,55.92
2019-01-21T05:45:20.727Z,56.98
2019-01-21T05:46:16.147Z,59.83
2019-01-21T05:47:04.576Z,60.52
2019-01-21T05:48:06.144Z,52.40
2019-01-21T05:48:57.449Z,53.28
2019-01-21T05:49:52.716Z,50.60
2019-01-21T05:50:43.950Z,53.10
2019-01-21T05:51:29.140Z,60.35
2019-01-21T05:52:15.498Z,58.75
2019-01-21T05:52:58.506Z,49.20
2019-01-21T05:53:54.041Z,53.92
2019-01-21T05:54:46.691Z,62.03
2019-01-21T05:55:48.047Z,63.08
2019-01-21T05:56:28.462Z,56.63
2019-01-21T05:57:36.279Z,56.73
2019-01-21T05:58:30.441Z,50.73
2019-01-21T05:59:18.257Z,53.65
2019-01-21T06:00:01.426Z,51.77
2019-01-21T06:00:56.838Z,57.65
2019-01-21T06:01:43.579Z,54.08
2019-01-21T06:02:37.317Z,55.88
2019-01-21T06:03:20.273Z,48.25
2019-01-21T06:04:01.816Z,57.33
2019-01-21T06:04:38.472Z,51.98
2019-01-21T06:05:15.691Z,50.98
2019-01-21T06:06:06.821Z,54.80
2019-01-21T06:06:52.064Z,52.80
2019-01-21T06:07:31.573Z,49.20
2019-01-21T06:08:32.970Z,57.55
2019-01-21T06:09:25.733Z,54.48
2019-01-21T06:10:02.487Z,55.60
2019-01-21T06:10:39.357Z,50.03
2019-01-21T06:11:19.515Z,63.73
2019-01-21T06:12:02.395Z,60.33
2019-01-21T06:12:55.038Z,62.03
2019-01-21T06:13:50.397Z,59.00
2019-01-21T06:14:42.933Z,50.78
2019-01-21T06:15:22.497Z,55.90
2019-01-21T06:16:09.921Z,61.80
2019-01-21T06:17:17.598Z,59.25
2019-01-21T06:18:00.647Z,59.65
2019-01-21T06:19:11.447Z,56.85
2019-01-21T06:19:57.874Z,59.13
2019-01-21T06:20:40.353Z,58.92
2019-01-21T06:21:38.799Z,63.87
2019-01-21T06:22:35.276Z,57.60
2019-01-21T06:23:40.046Z,59.00
2019-01-21T06:24:32.785Z,53.78
2019-01-21T06:25:28.408Z,63.78
2019-01-21T06:26:19.832Z,53.42
2019-01-21T06:27:15.588Z,54.35
2019-01-21T06:28:11.187Z,49.80
2019-01-21T06:28:50.857Z,57.17
2019-01-21T06:29:27.800Z,54.33
2019-01-21T06:30:38.497Z,68.17
2019-01-21T06:31:26.388Z,57.23
2019-01-21T06:32:25.127Z,63.08
2019-01-21T06:33:18.058Z,54.42
2019-01-21T06:34:19.845Z,59.40
2019-01-21T06:35:02.310Z,50.17
2019-01-21T06:35:51.909Z,52.62
2019-01-21T06:36:44.643Z,60.38
2019-01-21T06:37:24.466Z,58.40
2019-01-21T06:38:19.910Z,60.63
2019-01-21T06:39:07.059Z,58.15
2019-01-21T06:39:49.179Z,63.02
2019-01-21T06:40:33.348Z,56.73
2019-01-21T06:41:21.134Z,61.23
2019-01-21T06:42:12.395Z,63.85
2019-01-21T06:42:59.359Z,59.77
2019-01-21T06:43:54.899Z,64.47
2019-01-21T06:44:53.633Z,63.17
2019-01-21T06:46:04.406Z,55.95
2019-01-21T06:46:55.977Z,68.70
2019-01-21T06:47:51.231Z,61.95
2019-01-21T06:48:42.916Z,66.60
2019-01-21T06:49:31.742Z,62.93
2019-01-21T06:50:24.537Z,56.30
2019-01-21T06:51:15.738Z,65.47
2019-01-21T06:52:07.246Z,64.77
2019-01-21T06:53:00.234Z,67.12
2019-01-21T06:53:51.632Z,57.43
2019-01-21T06:54:44.358Z,67.40
2019-01-21T06:55:55.577Z,62.03
2019-01-21T06:57:00.566Z,64.50
2019-01-21T06:57:41.867Z,63.58
2019-01-21T06:58:40.634Z,64.07
2019-01-21T06:59:39.487Z,68.07
2019-01-21T07:00:20.165Z,60.40
2019-01-21T07:01:15.783Z,62.85
2019-01-21T07:02:08.984Z,65.72
2019-01-21T07:02:51.275Z,62.43
2019-01-21T07:03:33.416Z,68.55
2019-01-21T07:04:32.108Z,65.87
2019-01-21T07:05:27.897Z,67.85
2019-01-21T07:06:19.099Z,60.03
2019-01-21T07:07:30.522Z,68.85
2019-01-21T07:08:31.796Z,62.80
2019-01-21T07:09:36.369Z,69.97
2019-01-21T07:10:28.118Z,60.95
2019-01-21T07:11:26.631Z,70.17
2019-01-21T07:12:06.830Z,63.30
2019-01-21T07:12:58.556Z,68.52
2019-01-21T07:13:40.017Z,65.97
2019-01-21T07:14:38.596Z,61.63
2019-01-21T07:15:27.779Z,60.73
2019-01-21T07:16:11.750Z,67.85
2019-01-21T07:17:13.735Z,65.08
2019-01-21T07:17:54.865Z,70.83
2019-01-21T07:18:47.627Z,61.05
2019-01-21T07:19:46.291Z,66.65
2019-01-21T07:20:42.036Z,66.22
2019-01-21T07:21:43.310Z,60.85
2019-01-21T07:22:36.138Z,70.45
2019-01-21T07:23:27.521Z,66.97
2019-01-21T07:24:20.268Z,68.90
2019-01-21T07:25:15.699Z,61.95
2019-01-21T07:25:53.285Z,58.15
2019-01-21T07:26:46.022Z,70.57
2019-01-21T07:27:24.124Z,70.52
2019-01-21T07:28:19.578Z,73.85
2019-01-21T07:29:21.332Z,67.03
2019-01-21T07:30:17.005Z,60.88
2019-01-21T07:31:04.301Z,65.60
2019-01-21T07:31:41.870Z,67.20
2019-01-21T07:32:40.255Z,74.03
2019-01-21T07:33:35.846Z,64.37
2019-01-21T07:34:34.040Z,61.88
2019-01-21T07:35:29.388Z,64.47
2019-01-21T07:36:14.018Z,73.97
2019-01-21T07:36:54.300Z,64.67
2019-01-21T07:37:46.707Z,70.52
2019-01-21T07:38:39.241Z,71.90
2019-01-21T07:39:44.476Z,60.17
2019-01-21T07:40:56.032Z,75.57
2019-01-21T07:41:37.137Z,67.05
2019-01-21T07:42:27.926Z,64.22
2019-01-21T07:43:26.613Z,74.80
2019-01-21T07:44:14.449Z,69.53
2019-01-21T07:45:00.253Z,69.55
2019-01-21T07:45:41.259Z,63.52
2019-01-21T07:46:16.647Z,68.87
2019-01-21T07:47:14.940Z,66.65
2019-01-21T07:48:07.793Z,71.02
2019-01-21T07:48:52.689Z,64.80
2019-01-21T07:49:55.725Z,68.78
2019-01-21T07:51:05.303Z,70.78
2019-01-21T07:51:50.894Z,65.50
2019-01-21T07:52:35.933Z,70.08
2019-01-21T07:53:46.829Z,70.90
2019-01-21T07:54:26.537Z,59.58
2019-01-21T07:55:10.655Z,70.80
2019-01-21T07:56:09.298Z,78.12
2019-01-21T07:56:54.930Z,68.85
2019-01-21T07:57:46.625Z,83.80
2019-01-21T07:58:35.414Z,64.75
2019-01-21T07:59:28.410Z,70.08
2019-01-21T08:00:21.410Z,73.65
2019-01-21T08:01:04.458Z,65.22
2019-01-21T08:01:53.838Z,73.33
2019-01-21T08:02:50.020Z,72.67
2019-01-21T08:03:43.003Z,57.20
2019-01-21T08:04:19.233Z,69.03
2019-01-21T08:05:11.862Z,66.57
2019-01-21T08:06:03.608Z,63.13
2019-01-21T08:06:50.181Z,71.15
2019-01-21T08:07:32.672Z,65.45
2019-01-21T08:08:22.245Z,67.45
2019-01-21T08:08:59.748Z,63.50
2019-01-21T08:09:47.562Z,69.32
2019-01-21T08:10:58.692Z,63.48
2019-01-21T08:11:54.402Z,58.63
2019-01-21T08:12:39.202Z,67.00
2019-01-21T08:13:32.442Z,62.95
2019-01-21T08:14:47.577Z,59.13
2019-01-21T08:15:46.330Z,61.75
2019-01-21T08:16:42.089Z,60.20
2019-01-21T08:17:21.126Z,64.95
2019-01-21T08:18:16.618Z,70.32
2019-01-21T08:19:00.739Z,68.12
2019-01-21T08:19:37.297Z,65.25
2019-01-21T08:20:19.204Z,74.47
2019-01-21T08:21:10.474Z,65.78
2019-01-21T08:21:58.655Z,69.12
2019-01-21T08:23:00.049Z,71.25
2019-01-21T08:23:47.625Z,64.25
2019-01-21T08:24:46.336Z,65.90
2019-01-21T08:25:40.622Z,74.58
2019-01-21T08:26:42.101Z,68.62
2019-01-21T08:27:33.374Z,67.67
2019-01-21T08:28:17.515Z,70.60
2019-01-21T08:28:58.709Z,65.85
2019-01-21T08:29:42.285Z,73.33
2019-01-21T08:30:24.142Z,71.30
2019-01-21T08:31:16.847Z,72.75
2019-01-21T08:32:08.249Z,69.35
2019-01-21T08:32:52.928Z,67.37
2019-01-21T08:33:41.742Z,77.03
2019-01-21T08:34:34.408Z,75.72
2019-01-21T08:35:30.008Z,72.03
2019-01-21T08:36:25.530Z,72.20
2019-01-21T08:37:18.252Z,70.45
2019-01-21T08:38:04.035Z,69.92
2019-01-21T08:38:55.134Z,79.30
2019-01-21T08:39:48.768Z,68.28
2019-01-21T08:40:40.229Z,67.80
2019-01-21T08:41:23.907Z,65.28
2019-01-21T08:42:03.758Z,72.30
2019-01-21T08:42:46.073Z,72.27
2019-01-21T08:43:41.758Z,68.78
2019-01-21T08:44:37.232Z,71.72
2019-01-21T08:45:20.100Z,67.87
2019-01-21T08:46:21.463Z,73.45
2019-01-21T08:47:15.994Z,71.75
2019-01-21T08:48:00.289Z,73.72
2019-01-21T08:48:40.016Z,67.53
2019-01-21T08:49:38.811Z,67.92
2019-01-21T08:50:17.502Z,68.10
2019-01-21T08:50:57.823Z,61.58
2019-01-21T08:51:35.708Z,71.65
2019-01-21T08:52:12.748Z,62.60
2019-01-21T08:52:59.696Z,71.12
2019-01-21T08:53:39.161Z,64.50
2019-01-21T08:54:17.440Z,66.45
2019-01-21T08:55:12.989Z,64.82
2019-01-21T08:55:54.022Z,61.48
2019-01-21T08:56:37.621Z,60.28
2019-01-21T08:57:36.722Z,69.12
2019-01-21T08:58:32.467Z,60.67
2019-01-21T08:59:09.204Z,61.70
2019-01-21T08:59:55.211Z,60.98
2019-01-21T09:00:45.325Z,73.97
2019-01-21T09:01:43.462Z,60.15
2019-01-21T09:02:33.097Z,62.30
2019-01-21T09:03:15.545Z,70.10
2019-01-21T09:03:56.012Z,68.17
2019-01-21T09:04:37.170Z,59.20
2019-01-21T09:05:32.373Z,71.50
2019-01-21T09:06:30.967Z,66.12
2019-01-21T09:07:22.288Z,70.72
2019-01-21T09:08:17.581Z,63.65
2019-01-21T09:09:25.416Z,59.90
2019-01-21T09:10:02.814Z,66.95
2019-01-21T09:10:55.530Z,61.40
2019-01-21T09:11:36.596Z,56.15
2019-01-21T09:12:17.344Z,63.05
2019-01-21T09:13:25.229Z,57.23
2019-01-21T09:14:02.295Z,59.90
2019-01-21T09:14:42.925Z,76.37
2019-01-21T09:15:23.345Z,65.75
2019-01-21T09:16:04.576Z,81.00
2019-01-21T09:16:49.058Z,77.40
2019-01-21T09:17:50.890Z,80.75
2019-01-21T09:18:34.161Z,77.58
2019-01-21T09:19:17.816Z,67.35
2019-01-21T09:20:34.244Z,66.05
2019-01-21T09:21:21.635Z,80.10
2019-01-21T09:22:17.279Z,87.05
2019-01-21T09:23:06.902Z,66.85
2019-01-21T09:23:47.313Z,87.92
2019-01-21T09:24:40.740Z,85.32
2019-01-21T09:25:24.624Z,86.78
2019-01-21T09:26:10.724Z,96.02
2019-01-21T09:27:02.200Z,85.47
2019-01-21T09:27:39.332Z,100.58
2019-01-21T09:28:34.551Z,122.45
2019-01-21T09:29:26.923Z,102.58
2019-01-21T09:30:22.531Z,75.90
2019-01-21T09:31:04.205Z,81.32
2019-01-21T09:31:57.824Z,77.30
2019-01-21T09:32:39.387Z,76.10
2019-01-21T09:33:32.063Z,73.80
2019-01-21T09:34:23.485Z,71.17
2019-01-21T09:35:08.897Z,70.80
2019-01-21T09:35:49.634Z,75.97
2019-01-21T09:36:48.251Z,80.47
2019-01-21T09:37:43.152Z,98.12